• Join FlightAware (Why Join?)
  • Login
  • US Flag 
06:56AM EST


 

Airport Tracker/Info


-or-


 

Live Flight TrackerFlight Track Log ✈ JBU51 ✈ 28-Apr-2013 ✈ KBTV - KJFK

Flight Track Log - Related Links

Times and Time Zones

All times are in EDT time to prevent confusion due to time zone crossing. See the JBU51 flight status page for this flight to view local times or setup timezone preferences in your user account.

Time Position Orientation Groundspeed Altitude Reporting Facility
EDT Latitude Longitude Course Direction KTS MPH feet Rate Location/Type
10:57AM 44.4156 -73.1375 196° South 190 219 3,000  Level Boston Center
10:58AM 44.3528 -73.1631 196° South 219 252 5,800 3,060 Climbing Boston Center
10:59AM 44.1444 -73.2709 195° South  Level FlightAware Approximate
10:59AM 44.2797 -73.1969 198° South 257 296 9,200  Level Boston Center
11:00AM 44.0634 -73.3011 194° South  Level FlightAware Approximate
11:00AM 44.2064 -73.2539 209° Southwest 285 328 11,400  Level Boston Center
11:01AM 43.9818 -73.3283 194° South  Level FlightAware Approximate
11:01AM 44.1289 -73.3106 208° Southwest 338 389 14,400  Level Boston Center
11:02AM 43.9004 -73.3565 196° South  Level FlightAware Approximate
11:02AM 44.0408 -73.3758 208° Southwest 359 413 17,000  Level Boston Center
11:03AM 43.9444 -73.4464 208° Southwest 378 435 18,900 1,980 Climbing Boston Center
11:04AM 43.8478 -73.5167 208° Southwest 395 455 21,000 2,100 Climbing Boston Center
11:05AM 43.7472 -73.5925 209° Southwest 407 468 23,200 1,800 Climbing Boston Center
11:06AM 43.6317 -73.6736 207° Southwest 418 481 24,700 1,440 Climbing Boston Center
11:07AM 43.5225 -73.7514 207° Southwest 430 495 26,100 1,560 Climbing Boston Center
11:08AM 43.4111 -73.8347 209° Southwest 442 509 27,900 900 Climbing Boston Center
11:09AM 43.3081 -73.9094 208° Southwest 453 521 27,900  Level Boston Center
11:10AM 43.1806 -73.9264 186° South 460 529 28,000  Climbing Boston Center
11:11AM 43.0472 -73.9175 177° South 466 536 28,000  Level Boston Center
11:12AM 42.9161 -73.9086 177° South 471 542 28,000  Level Boston Center
11:13AM 42.7828 -73.8997 177° South 477 549 28,000  Level Boston Center
11:14AM 42.6494 -73.8911 177° South 483 556 28,000  Level Boston Center
11:15AM 42.5058 -73.8819 177° South 475 547 28,000  Level Boston Center
11:16AM 42.3747 -73.8733 177° South 475 547 28,000  Level Boston Center
11:17AM 42.2394 -73.8619 176° South 475 547 28,000  Level Boston Center
11:18AM 42.1081 -73.8561 178° South 475 547 28,000  Level Boston Center
11:19AM 41.9750 -73.8447 176° South 475 547 28,000 -960 Level Boston Center
11:21AM 41.7208 -73.8614 183° South 472 543 25,200 -1,500 Descending New York Center
11:22AM 41.6131 -73.9258 204° Southwest 439 505 23,400 -1,800 Descending New York Center
11:23AM 41.5008 -73.9953 205° Southwest 426 490 21,600 -1,740 Descending New York Center
11:24AM 41.3992 -74.0594 205° Southwest 421 484 20,000 -840 Descending New York Center
11:25AM 41.3053 -74.1322 210° Southwest 413 475 20,000  Level New York Center
11:26AM 41.1967 -74.1433 184° South 389 448 20,000 -120 Level New York Center
11:27AM 41.0989 -74.1411 179° South 372 428 19,800 -540 Descending New York Center
11:28AM 41.0031 -74.1392 179° South 358 412 19,000 -660 Descending New York Center
11:28AM 40.9667 -74.1333 173° South 340 391 19,000  Level New York TRACON
11:29AM 40.8833 -74.1000 163° South 342 394 19,000  Level New York TRACON
11:31AM 40.7347 -74.0575 168° South 345 397 19,000 -240 Level New York Center
11:31AM 40.7000 -74.0500 171° South 342 394 18,600 -1,440 Descending New York TRACON
11:32AM 40.6167 -74.0167 163° South 344 396 17,200 -1,500 Descending New York TRACON
11:34AM 40.4881 -73.9336 154° Southeast 290 334 14,500 -1,800 Descending New York Center
11:34AM 40.4667 -73.8833 119° Southeast 321 369 13,700 -1,920 Descending New York TRACON
11:35AM 40.4333 -73.7833 114° Southeast 309 356 12,100 -1,680 Descending New York TRACON
11:36AM 40.3833 -73.6833 123° Southeast 299 344 10,400 -1,560 Descending New York TRACON
11:37AM 40.3500 -73.6000 118° Southeast 283 326 9,000 -1,500 Descending New York TRACON
11:38AM 40.3292 -73.5397 114° Southeast 286 329 7,900 -1,680 Descending New York Center
11:39AM 40.3600 -73.4675 61° Northeast 232 267 6,200 -1,800 Descending New York Center
11:39AM 40.3833 -73.4667 North 272 313 5,600 -1,800 Descending New York TRACON
11:40AM 40.4667 -73.5000 343° North 266 306 3,900 -1,320 Descending New York TRACON
11:41AM 40.5333 -73.5167 349° North 262 302 3,000 -480 Descending New York TRACON
11:42AM 40.6000 -73.5333 349° North 263 303 3,000  Level New York TRACON